• Join FlightAware (Why Join?)
  • Login
  • US Flag 
 
12:56AM EST


 

Airport Tracker/Info


-or-


 

Live Flight TrackerFlight Track Log ✈ N896CA ✈ 12-Jul-2013 ✈ KMRC - KYIP

Flight Track Log - Related Links

Times and Time Zones

All times are in EDT time to prevent confusion due to time zone crossing. See the N896CA flight status page for this flight to view local times or setup timezone preferences in your user account.

Time Position Orientation Groundspeed Altitude Reporting Facility
EDT Latitude Longitude Course Direction KTS MPH feet Rate Location/Type
07:33PM 35.6439 -87.1511 18° North 251 289 4,600  Level Memphis Center
07:34PM 35.6831 -87.1392 14° North 160 184 6,600 1,980 Climbing Memphis Center
07:35PM 35.7203 -87.1225 20° North 127 146 8,600 1,920 Climbing Memphis Center
07:36PM 35.7553 -87.1083 18° North 127 146 10,500 1,920 Climbing Memphis Center
07:37PM 35.7947 -87.0989 11° North 127 146 12,500 1,800 Climbing Memphis Center
07:38PM 36.0305 -87.0045 18° North  Level FlightAware Approximate
07:38PM 35.8339 -87.0822 19° North 137 158 14,100  Level Memphis Center
07:39PM 35.8711 -87.0703 15° North 143 165 16,000 1,800 Climbing Memphis Center
07:40PM 35.9103 -87.0561 16° North 143 165 17,700 1,620 Climbing Memphis Center
07:41PM 35.9453 -87.0417 18° North 143 165 19,300 1,440 Climbing Memphis Center
07:42PM 35.9867 -87.0297 13° North 143 165 20,600 1,260 Climbing Memphis Center
07:43PM 36.0322 -87.0150 15° North 148 170 21,900 1,200 Climbing Memphis Center
07:44PM 36.0756 -86.9981 18° North 160 184 23,000 540 Climbing Memphis Center
07:45PM 36.1333 -86.9775 16° North 196 226 23,000  Level Memphis Center
07:46PM 36.2014 -86.9542 15° North 239 275 23,000  Level Memphis Center
07:47PM 36.2758 -86.9306 14° North 265 305 23,000  Level Memphis Center
07:48PM 36.3564 -86.8989 18° North 265 305 23,000  Level Memphis Center
07:49PM 36.4347 -86.8747 14° North 277 319 23,000  Level Memphis Center
07:50PM 36.5069 -86.8483 16° North 277 319 23,000  Level Memphis Center
07:51PM 36.5792 -86.8219 16° North 277 319 23,000  Level Memphis Center
07:52PM 36.6536 -86.7956 16° North 277 319 23,000  Level Memphis Center
07:53PM 36.7217 -86.7717 16° North 277 319 23,000  Level Memphis Center
07:54PM 36.7958 -86.7478 14° North 277 319 23,000  Level Memphis Center
07:56PM 36.9406 -86.6944 16° North 273 314 23,000  Level Indianapolis Center
07:57PM 37.0136 -86.6692 15° North 271 312 23,000  Level Indianapolis Center
07:58PM 37.0861 -86.6433 16° North 269 310 23,000  Level Indianapolis Center
07:59PM 37.1583 -86.6169 16° North 267 307 23,000  Level Indianapolis Center
08:00PM 37.2450 -86.5872 15° North 274 315 23,000  Level Indianapolis Center
08:01PM 37.3169 -86.5606 16° North 268 308 23,000  Level Indianapolis Center
08:02PM 37.3894 -86.5347 16° North 267 307 23,000  Level Indianapolis Center
08:03PM 37.4597 -86.5106 15° North 260 299 23,000  Level Indianapolis Center
08:04PM 37.5319 -86.4850 16° North 265 305 23,000  Level Indianapolis Center
08:05PM 37.6022 -86.4600 16° North 260 299 23,000  Level Indianapolis Center
08:06PM 37.6736 -86.4342 16° North 264 304 23,000  Level Indianapolis Center
08:07PM 37.7450 -86.4097 15° North 263 303 23,000  Level Indianapolis Center
08:08PM 37.8128 -86.3850 16° North 261 300 23,000  Level Indianapolis Center
08:09PM 37.8969 -86.3539 16° North 262 302 23,000  Level Indianapolis Center
08:10PM 37.9656 -86.3303 15° North 257 296 23,000  Level Indianapolis Center
08:11PM 38.0339 -86.3050 16° North 256 295 23,000  Level Indianapolis Center
08:12PM 38.1019 -86.2792 17° North 256 295 23,000  Level Indianapolis Center
08:13PM 38.1703 -86.2553 15° North 255 293 23,000  Level Indianapolis Center
08:14PM 38.2378 -86.2317 15° North 252 290 23,000  Level Indianapolis Center
08:15PM 38.3050 -86.2067 16° North 252 290 23,000  Level Indianapolis Center
08:16PM 38.3853 -86.1769 16° North 251 289 23,000  Level Indianapolis Center
08:17PM 38.4519 -86.1531 16° North 249 287 23,000  Level Indianapolis Center
08:18PM 38.5183 -86.1289 16° North 247 284 23,000  Level Indianapolis Center
08:19PM 38.5856 -86.1033 17° North 250 288 23,000  Level Indianapolis Center
08:20PM 38.6508 -86.0806 15° North 245 282 23,000  Level Indianapolis Center
08:21PM 38.7156 -86.0547 17° North 241 277 23,000  Level Indianapolis Center
08:22PM 38.7808 -86.0322 15° North 241 277 23,000  Level Indianapolis Center
08:23PM 38.8456 -86.0075 17° North 242 278 23,000  Level Indianapolis Center
08:24PM 38.9100 -85.9839 16° North 239 275 23,000  Level Indianapolis Center
08:25PM 38.9869 -85.9544 17° North 240 276 23,000  Level Indianapolis Center
08:26PM 39.0494 -85.9303 17° North 238 274 23,000  Level Indianapolis Center
08:27PM 39.1136 -85.9072 16° North 239 275 23,000  Level Indianapolis Center
08:28PM 39.1769 -85.8831 16° North 238 274 23,000  Level Indianapolis Center
08:29PM 39.2397 -85.8589 17° North 238 274 23,000  Level Indianapolis Center
08:31PM 39.3033 -85.8356 16° North 239 275 23,000  Level Indianapolis Center
08:32PM 39.3664 -85.8128 16° North 238 274 23,000  Level Indianapolis Center
08:33PM 39.4419 -85.7828 17° North 238 274 23,000  Level Indianapolis Center
08:34PM 39.5061 -85.7594 16° North 240 276 23,000  Level Indianapolis Center
08:35PM 39.5697 -85.7350 16° North 239 275 23,000  Level Indianapolis Center
08:36PM 39.6339 -85.7106 16° North 241 277 23,000  Level Indianapolis Center
08:37PM 39.6983 -85.6864 16° North 243 280 23,000  Level Indianapolis Center
08:38PM 39.7750 -85.6575 16° North 241 277 23,000  Level Indianapolis Center
08:39PM 39.8383 -85.6319 17° North 240 276 23,000  Level Indianapolis Center
08:40PM 39.9033 -85.6078 16° North 243 280 23,000  Level Indianapolis Center
08:41PM 39.9675 -85.5842 16° North 242 278 23,000  Level Indianapolis Center
08:42PM 40.0322 -85.5592 16° North 244 281 23,000  Level Indianapolis Center
08:43PM 40.0958 -85.5331 17° North 242 278 23,000  Level Indianapolis Center
08:44PM 40.1742 -85.5036 16° North 245 282 23,000  Level Indianapolis Center
08:45PM 40.2378 -85.4781 17° North 241 277 23,000  Level Indianapolis Center
08:46PM 40.3031 -85.4536 16° North 243 280 23,000  Level Indianapolis Center
08:47PM 40.3678 -85.4275 17° North 244 281 23,000  Level Indianapolis Center
08:48PM 40.4344 -85.4017 16° North 246 283 23,000  Level Chicago Center
08:49PM 40.5003 -85.3767 16° North 247 284 23,000  Level Chicago Center
08:50PM 40.5650 -85.3497 18° North 247 284 23,000  Level Chicago Center
08:51PM 40.6311 -85.3244 16° North 247 284 23,000  Level Chicago Center
08:52PM 40.7044 -85.2939 18° North 249 287 23,000 -420 Level Chicago Center
08:53PM 40.7728 -85.2675 16° North 253 291 22,200 -1,020 Descending Chicago Center
08:54PM 40.8472 -85.2392 16° North 271 312 21,000 -600 Descending Chicago Center
08:55PM 40.9189 -85.2106 17° North 272 313 21,000 -360 Level Chicago Center
08:56PM 40.9994 -85.1769 17° North 257 296 20,300 -720 Descending Chicago Center
08:57PM 41.0714 -85.1508 15° North 266 306 19,600 -660 Descending Chicago Center
08:58PM 41.1436 -85.1231 16° North 270 311 19,000 -300 Descending Chicago Center
08:59PM 41.2131 -85.0964 16° North 265 305 19,000  Level Chicago Center
09:00PM 41.2803 -85.0697 17° North 256 295 19,000  Level Chicago Center
09:01PM 41.3608 -85.0400 15° North 252 290 19,000 -60 Level Chicago Center
09:02PM 41.4253 -85.0083 20° North 250 288 18,900 -540 Descending Chicago Center
09:03PM 41.4697 -84.9347 51° Northeast 256 295 17,900 -840 Descending Chicago Center
09:04PM 41.5172 -84.8608 49° Northeast 263 303 17,200 -840 Descending Chicago Center
09:05PM 41.5642 -84.7856 50° Northeast 265 305 16,200 -960 Descending Chicago Center
09:07PM 41.6222 -84.6975 49° Northeast 265 305 15,300 -840 Descending Chicago Center
09:08PM 41.6697 -84.6225 50° Northeast 266 306 14,500 -840 Descending Chicago Center
09:08PM 41.6964 -84.5769 52° Northeast 263 303 14,000 -840 Descending Cleveland Center
09:09PM 41.7447 -84.5047 48° Northeast 263 303 13,200 -840 Descending Cleveland Center
09:10PM 41.7911 -84.4325 49° Northeast 263 303 12,400 -840 Descending Cleveland Center
09:11PM 41.8394 -84.3572 49° Northeast 263 303 11,600 -840 Descending Cleveland Center
09:12PM 41.8856 -84.2847 49° Northeast 263 303 10,800 -840 Descending Cleveland Center